createdAt,value
2022-09-22T00:02:36.305Z,100.00
2022-09-22T00:05:23.552Z,100.00
2022-09-22T00:08:09.594Z,100.00
2022-09-22T00:11:05.032Z,100.00
2022-09-22T00:13:54.972Z,100.00
2022-09-22T00:16:42.486Z,100.00
2022-09-22T00:19:32.988Z,100.00
2022-09-22T00:22:19.409Z,100.00
2022-09-22T00:25:06.876Z,100.00
2022-09-22T00:27:54.445Z,100.00
2022-09-22T00:30:42.417Z,100.00
2022-09-22T00:33:28.456Z,100.00
2022-09-22T00:36:15.934Z,100.00
2022-09-22T00:39:02.733Z,100.00
2022-09-22T00:41:51.067Z,99.42
2022-09-22T00:44:44.613Z,100.00
2022-09-22T00:47:34.940Z,99.08
2022-09-22T00:50:24.348Z,98.68
2022-09-22T00:53:13.261Z,98.69
2022-09-22T00:56:22.297Z,99.27
2022-09-22T00:59:12.703Z,99.71
2022-09-22T01:01:59.060Z,98.19
2022-09-22T01:04:46.084Z,97.03
2022-09-22T01:07:32.396Z,98.12
2022-09-22T01:10:18.764Z,98.38
2022-09-22T01:13:45.135Z,100.00
2022-09-22T01:16:43.394Z,100.00
2022-09-22T01:19:45.189Z,100.00
2022-09-22T01:22:46.894Z,100.00
2022-09-22T01:26:00.749Z,100.00
2022-09-22T01:29:11.824Z,100.00
2022-09-22T01:32:01.354Z,100.00
2022-09-22T01:35:06.192Z,100.00
2022-09-22T01:38:03.546Z,100.00
2022-09-22T01:41:04.334Z,100.00
2022-09-22T01:43:55.288Z,100.00
2022-09-22T01:46:50.077Z,100.00
2022-09-22T01:49:40.592Z,100.00
2022-09-22T01:52:32.567Z,100.00
2022-09-22T01:55:26.772Z,100.00
2022-09-22T01:58:19.814Z,100.00
2022-09-22T02:01:14.931Z,100.00
2022-09-22T02:04:13.504Z,100.00
2022-09-22T02:07:11.046Z,100.00
2022-09-22T02:09:59.156Z,100.00
2022-09-22T02:12:45.646Z,100.00
2022-09-22T02:15:50.520Z,100.00
2022-09-22T02:18:42.916Z,100.00
2022-09-22T02:21:29.506Z,100.00
2022-09-22T02:24:31.115Z,100.00
2022-09-22T02:27:27.152Z,100.00
2022-09-22T02:30:14.030Z,100.00
2022-09-22T02:33:01.065Z,100.00
2022-09-22T02:35:48.728Z,100.00
2022-09-22T02:38:47.985Z,100.00
2022-09-22T02:41:44.854Z,100.00
2022-09-22T02:44:36.579Z,100.00
2022-09-22T02:47:34.407Z,100.00
2022-09-22T02:50:23.452Z,100.00
2022-09-22T02:53:16.955Z,100.00
2022-09-22T02:56:03.733Z,100.00
2022-09-22T02:58:49.977Z,100.00
2022-09-22T03:01:36.395Z,100.00
2022-09-22T03:04:22.281Z,100.00
2022-09-22T03:07:08.658Z,99.56
2022-09-22T03:09:54.413Z,100.00
2022-09-22T03:13:09.190Z,99.20
2022-09-22T03:15:49.924Z,98.77
2022-09-22T03:18:36.137Z,100.00
2022-09-22T03:21:21.882Z,100.00
2022-09-22T03:24:08.333Z,100.00
2022-09-22T03:26:54.278Z,100.00
2022-09-22T03:29:40.479Z,100.00
2022-09-22T03:32:26.560Z,100.00
2022-09-22T03:35:12.791Z,100.00
2022-09-22T03:37:58.603Z,100.00
2022-09-22T03:40:52.441Z,100.00
2022-09-22T03:43:38.320Z,100.00
2022-09-22T03:46:25.117Z,100.00
2022-09-22T03:49:11.612Z,100.00
2022-09-22T03:51:58.095Z,100.00
2022-09-22T03:54:43.957Z,100.00
2022-09-22T03:57:30.281Z,100.00
2022-09-22T04:00:16.950Z,100.00
2022-09-22T04:03:03.379Z,100.00
2022-09-22T04:05:49.931Z,100.00
2022-09-22T04:08:36.286Z,100.00
2022-09-22T04:11:23.562Z,100.00
2022-09-22T04:14:09.743Z,100.00
2022-09-22T04:16:56.748Z,100.00
2022-09-22T04:19:42.819Z,100.00
2022-09-22T04:22:29.034Z,100.00
2022-09-22T04:25:15.192Z,100.00
2022-09-22T04:28:04.885Z,100.00
2022-09-22T04:30:51.896Z,100.00
2022-09-22T04:33:37.812Z,100.00
2022-09-22T04:36:24.178Z,100.00
2022-09-22T04:39:10.090Z,100.00
2022-09-22T04:41:56.097Z,100.00
2022-09-22T04:44:41.944Z,100.00
2022-09-22T04:47:31.420Z,100.00
2022-09-22T04:50:17.712Z,100.00
2022-09-22T04:53:04.077Z,100.00
2022-09-22T04:55:50.213Z,100.00
2022-09-22T04:58:36.204Z,100.00
2022-09-22T05:01:22.079Z,100.00
2022-09-22T05:04:09.348Z,100.00
2022-09-22T05:06:55.329Z,100.00
2022-09-22T05:09:41.418Z,100.00
2022-09-22T05:12:27.606Z,100.00
2022-09-22T05:15:14.203Z,100.00
2022-09-22T05:18:00.066Z,100.00
2022-09-22T05:20:46.537Z,100.00
2022-09-22T05:23:32.238Z,100.00
2022-09-22T05:26:19.356Z,100.00
2022-09-22T05:29:06.357Z,100.00
2022-09-22T05:31:52.492Z,100.00
2022-09-22T05:34:38.154Z,100.00
2022-09-22T05:37:24.222Z,100.00
2022-09-22T05:40:10.922Z,100.00
2022-09-22T05:42:57.403Z,100.00
2022-09-22T05:45:43.966Z,100.00
2022-09-22T05:48:31.412Z,100.00
2022-09-22T05:51:17.666Z,100.00
2022-09-22T05:54:04.205Z,100.00
2022-09-22T05:56:49.972Z,100.00
2022-09-22T05:59:36.039Z,100.00
2022-09-22T06:02:26.113Z,100.00
2022-09-22T06:05:16.205Z,100.00
2022-09-22T06:08:05.223Z,100.00
2022-09-22T06:10:52.784Z,100.00
2022-09-22T06:13:39.669Z,100.00
2022-09-22T06:16:26.007Z,100.00
2022-09-22T06:19:12.131Z,100.00
2022-09-22T06:21:58.574Z,100.00
2022-09-22T06:24:45.316Z,100.00
2022-09-22T06:27:31.924Z,100.00
2022-09-22T06:30:18.531Z,100.00
2022-09-22T06:33:04.911Z,100.00
2022-09-22T06:35:51.232Z,100.00
2022-09-22T06:38:37.566Z,100.00
2022-09-22T06:41:23.790Z,100.00
2022-09-22T06:44:12.671Z,100.00
2022-09-22T06:46:59.694Z,100.00
2022-09-22T06:49:46.702Z,100.00
2022-09-22T06:52:36.142Z,100.00
2022-09-22T06:55:23.780Z,100.00
2022-09-22T06:58:10.075Z,100.00
2022-09-22T07:00:59.222Z,100.00
2022-09-22T07:03:46.303Z,100.00
2022-09-22T07:06:33.316Z,100.00
2022-09-22T07:09:19.965Z,100.00
2022-09-22T07:12:06.407Z,100.00
2022-09-22T07:14:53.409Z,100.00
2022-09-22T07:17:40.057Z,100.00
2022-09-22T07:20:26.374Z,100.00
2022-09-22T07:23:19.054Z,100.00
2022-09-22T07:26:06.465Z,100.00
2022-09-22T07:28:53.969Z,100.00
2022-09-22T07:31:41.494Z,100.00
2022-09-22T07:34:27.683Z,100.00
2022-09-22T07:37:15.510Z,100.00
2022-09-22T07:40:03.495Z,100.00
2022-09-22T07:42:49.817Z,100.00
2022-09-22T07:45:36.268Z,100.00
2022-09-22T07:48:42.367Z,100.00
2022-09-22T07:51:28.971Z,100.00
2022-09-22T07:54:15.906Z,100.00
2022-09-22T07:57:11.101Z,100.00
2022-09-22T07:59:57.621Z,100.00
2022-09-22T08:02:44.659Z,100.00
2022-09-22T08:05:33.992Z,99.99
2022-09-22T08:08:20.806Z,99.24
2022-09-22T08:11:08.661Z,95.65
2022-09-22T08:13:55.333Z,94.33
2022-09-22T08:16:41.795Z,95.28
2022-09-22T08:19:33.874Z,92.60
2022-09-22T08:22:20.153Z,92.75
2022-09-22T08:25:07.404Z,92.89
2022-09-22T08:27:54.293Z,95.74
2022-09-22T08:30:45.216Z,92.87
2022-09-22T08:33:34.288Z,93.20
2022-09-22T08:36:20.793Z,91.82
2022-09-22T08:39:07.260Z,92.07
2022-09-22T08:42:07.297Z,90.34
2022-09-22T08:45:04.268Z,86.06
2022-09-22T08:48:18.548Z,88.12
2022-09-22T08:51:42.000Z,87.17
2022-09-22T08:54:28.505Z,85.45
2022-09-22T08:57:33.352Z,84.30
2022-09-22T09:00:19.403Z,79.69
2022-09-22T09:03:24.296Z,79.73
2022-09-22T09:06:16.197Z,77.34
2022-09-22T09:09:11.485Z,75.84
2022-09-22T09:11:58.188Z,76.12
2022-09-22T09:15:03.961Z,75.28
2022-09-22T09:17:49.819Z,74.18
2022-09-22T09:20:38.988Z,75.54
2022-09-22T09:26:40.006Z,70.92
2022-09-22T09:29:29.870Z,69.40
2022-09-22T09:32:21.753Z,70.54
2022-09-22T09:35:08.183Z,70.94
2022-09-22T09:37:55.664Z,66.62
2022-09-22T09:40:41.682Z,67.86
2022-09-22T09:43:28.271Z,70.86
2022-09-22T09:46:17.988Z,72.93
2022-09-22T09:49:05.669Z,72.43
2022-09-22T09:51:52.876Z,68.10
2022-09-22T09:54:40.743Z,69.10
2022-09-22T09:57:28.070Z,65.31
2022-09-22T10:00:31.817Z,67.10
2022-09-22T10:03:25.393Z,65.54
2022-09-22T10:06:11.780Z,64.24
2022-09-22T10:08:58.180Z,64.67
2022-09-22T10:11:43.966Z,65.52
2022-09-22T10:14:31.694Z,69.42
2022-09-22T10:17:21.942Z,63.97
2022-09-22T10:20:17.220Z,66.28
2022-09-22T10:23:22.684Z,73.24
2022-09-22T10:26:16.130Z,69.26
2022-09-22T10:29:20.966Z,69.20
2022-09-22T10:32:17.009Z,66.64
2022-09-22T10:35:29.945Z,64.13
2022-09-22T10:38:21.966Z,61.14
2022-09-22T10:41:12.437Z,57.48
2022-09-22T10:44:35.071Z,59.53
2022-09-22T10:47:27.356Z,53.74
2022-09-22T10:50:35.747Z,53.88
2022-09-22T10:53:31.220Z,48.29
2022-09-22T10:56:26.481Z,53.60
2022-09-22T10:59:15.427Z,53.70
2022-09-22T11:02:04.929Z,55.05
2022-09-22T11:04:53.340Z,54.03
2022-09-22T11:08:10.698Z,54.18
2022-09-22T11:11:18.485Z,52.73
2022-09-22T11:14:17.410Z,52.90
2022-09-22T11:17:06.110Z,52.47
2022-09-22T11:20:16.635Z,54.24
2022-09-22T11:23:08.777Z,56.35
2022-09-22T11:26:02.161Z,55.46
2022-09-22T11:29:07.644Z,56.62
2022-09-22T11:32:08.930Z,55.95
2022-09-22T11:35:00.871Z,55.98
2022-09-22T11:37:53.260Z,53.55
2022-09-22T11:40:51.459Z,54.47
2022-09-22T11:43:47.024Z,53.13
2022-09-22T11:46:45.008Z,51.86
2022-09-22T11:49:37.170Z,51.49
2022-09-22T11:52:43.757Z,52.55
2022-09-22T11:55:36.247Z,52.91
2022-09-22T11:58:22.744Z,54.01
2022-09-22T12:01:13.282Z,53.13
2022-09-22T12:04:15.590Z,52.29
2022-09-22T12:07:03.281Z,51.07
2022-09-22T12:09:56.626Z,51.47
2022-09-22T12:12:43.440Z,51.64
2022-09-22T12:15:37.918Z,51.85
2022-09-22T12:18:26.668Z,51.19
2022-09-22T12:21:22.638Z,50.48
2022-09-22T12:24:09.389Z,52.13
2022-09-22T12:26:55.279Z,54.58
2022-09-22T12:29:42.050Z,56.67
2022-09-22T12:32:36.345Z,56.37
2022-09-22T12:35:30.321Z,58.79
2022-09-22T12:38:19.821Z,52.39
2022-09-22T12:41:06.057Z,53.44
2022-09-22T12:43:52.225Z,53.58
2022-09-22T12:46:39.104Z,52.61
2022-09-22T12:49:25.551Z,57.37
2022-09-22T12:52:30.592Z,56.07
2022-09-22T12:55:19.983Z,53.77
2022-09-22T12:58:21.422Z,55.86
2022-09-22T13:01:26.634Z,55.93
2022-09-22T13:04:16.962Z,56.21
2022-09-22T13:07:03.533Z,56.17
2022-09-22T13:09:50.629Z,56.74
2022-09-22T13:12:36.823Z,54.67
2022-09-22T13:15:22.558Z,56.00
2022-09-22T13:18:27.265Z,56.94
2022-09-22T13:21:13.196Z,54.70
2022-09-22T13:24:02.261Z,57.67
2022-09-22T13:26:48.229Z,62.05
2022-09-22T13:29:34.779Z,63.86
2022-09-22T13:32:27.045Z,61.94
2022-09-22T13:35:27.076Z,64.45
2022-09-22T13:38:13.691Z,64.98
2022-09-22T13:41:03.249Z,62.95
2022-09-22T13:43:49.060Z,58.27
2022-09-22T13:46:37.580Z,57.02
2022-09-22T13:49:35.513Z,55.04
2022-09-22T13:52:22.351Z,54.77
2022-09-22T13:55:08.349Z,54.48
2022-09-22T13:57:55.505Z,52.72
2022-09-22T14:01:08.570Z,50.42
2022-09-22T14:03:49.529Z,50.17
2022-09-22T14:06:36.830Z,52.92
2022-09-22T14:09:23.508Z,53.46
2022-09-22T14:12:10.133Z,48.34
2022-09-22T14:14:56.240Z,45.85
2022-09-22T14:17:42.213Z,45.85
2022-09-22T14:20:28.432Z,43.01
2022-09-22T14:23:15.855Z,45.56
2022-09-22T14:26:18.147Z,43.68
2022-09-22T14:29:27.319Z,44.05
2022-09-22T14:32:24.822Z,44.00
2022-09-22T14:35:31.965Z,44.62
2022-09-22T14:38:22.076Z,48.21
2022-09-22T14:41:23.614Z,49.48
2022-09-22T14:44:28.896Z,47.98
2022-09-22T14:47:17.783Z,46.28
2022-09-22T14:50:07.330Z,45.82
2022-09-22T14:52:54.889Z,43.97
2022-09-22T14:55:47.764Z,46.49
2022-09-22T14:58:38.389Z,45.35
2022-09-22T15:01:48.855Z,45.50
2022-09-22T15:04:36.955Z,44.39
2022-09-22T15:07:25.873Z,42.56
2022-09-22T15:10:22.319Z,40.88
2022-09-22T15:13:28.139Z,41.81
2022-09-22T15:16:33.479Z,43.70
2022-09-22T15:19:22.983Z,59.08
2022-09-22T15:22:13.615Z,64.26
2022-09-22T15:24:59.920Z,79.21
2022-09-22T15:27:45.833Z,93.17
2022-09-22T15:30:32.813Z,89.22
2022-09-22T15:33:19.276Z,85.93
2022-09-22T15:36:15.892Z,93.76
2022-09-22T15:39:08.733Z,93.80
2022-09-22T15:41:57.079Z,88.31
2022-09-22T15:44:44.236Z,90.81
2022-09-22T15:47:30.845Z,87.11
2022-09-22T15:50:17.741Z,86.07
2022-09-22T15:53:04.124Z,80.82
2022-09-22T15:55:50.599Z,82.30
2022-09-22T15:58:39.155Z,87.57
2022-09-22T16:01:26.046Z,85.15
2022-09-22T16:04:12.943Z,84.87
2022-09-22T16:07:02.304Z,82.18
2022-09-22T16:09:48.928Z,85.68
2022-09-22T16:12:34.734Z,84.13
2022-09-22T16:15:20.669Z,80.20
2022-09-22T16:18:08.504Z,79.27
2022-09-22T16:21:02.497Z,76.07
2022-09-22T16:23:48.479Z,74.34
2022-09-22T16:26:35.341Z,72.39
2022-09-22T16:29:21.210Z,71.10
2022-09-22T16:32:07.587Z,68.87
2022-09-22T16:34:53.542Z,69.81
2022-09-22T16:37:39.565Z,73.04
2022-09-22T16:40:25.832Z,73.25
2022-09-22T16:43:13.179Z,77.85
2022-09-22T16:46:17.945Z,78.51
2022-09-22T16:49:09.881Z,77.88
2022-09-22T16:51:56.018Z,81.95
2022-09-22T16:54:42.396Z,78.53
2022-09-22T16:57:29.159Z,78.92
2022-09-22T17:00:15.961Z,77.79
2022-09-22T17:03:01.753Z,78.14
2022-09-22T17:05:48.475Z,79.33
2022-09-22T17:08:35.439Z,80.39
2022-09-22T17:11:24.399Z,83.52
2022-09-22T17:14:12.545Z,83.17
2022-09-22T17:17:06.172Z,83.85
2022-09-22T17:19:52.273Z,84.01
2022-09-22T17:22:38.915Z,80.72
2022-09-22T17:25:27.958Z,85.97
2022-09-22T17:28:14.063Z,84.51
2022-09-22T17:31:01.285Z,86.63
2022-09-22T17:33:51.945Z,86.55
2022-09-22T17:36:38.582Z,84.46
2022-09-22T17:39:25.772Z,82.94
2022-09-22T17:42:14.676Z,82.93
2022-09-22T17:45:00.879Z,83.19
2022-09-22T17:48:05.393Z,85.07
2022-09-22T17:51:10.089Z,86.30
2022-09-22T17:54:25.592Z,83.57
2022-09-22T17:57:19.029Z,84.03
2022-09-22T18:00:06.528Z,86.31
2022-09-22T18:02:54.281Z,89.24
2022-09-22T18:05:41.106Z,85.95
2022-09-22T18:08:27.341Z,85.78
2022-09-22T18:11:13.931Z,86.88
2022-09-22T18:14:00.975Z,88.80
2022-09-22T18:16:48.027Z,88.03
2022-09-22T18:19:37.235Z,89.10
2022-09-22T18:22:24.775Z,87.95
2022-09-22T18:25:11.218Z,89.23
2022-09-22T18:27:58.113Z,91.02
2022-09-22T18:30:46.509Z,97.92
2022-09-22T18:33:32.373Z,100.00
2022-09-22T18:36:18.877Z,100.00
2022-09-22T18:39:05.415Z,100.00
2022-09-22T18:41:54.939Z,100.00
2022-09-22T18:44:41.520Z,100.00
2022-09-22T18:47:27.742Z,100.00
2022-09-22T18:50:13.574Z,100.00
2022-09-22T18:53:00.249Z,100.00
2022-09-22T18:55:47.952Z,96.63
2022-09-22T18:58:34.236Z,96.44
2022-09-22T19:01:20.437Z,97.59
2022-09-22T19:04:07.574Z,96.40
2022-09-22T19:07:12.714Z,92.21
2022-09-22T19:09:59.037Z,91.17
2022-09-22T19:12:44.986Z,88.69
2022-09-22T19:15:31.567Z,87.63
2022-09-22T19:18:22.431Z,87.59
2022-09-22T19:21:14.362Z,87.68
2022-09-22T19:24:00.295Z,87.05
2022-09-22T19:26:48.205Z,84.17
2022-09-22T19:29:34.478Z,84.87
2022-09-22T19:32:20.634Z,85.67
2022-09-22T19:35:06.942Z,85.20
2022-09-22T19:37:53.290Z,84.15
2022-09-22T19:40:39.274Z,85.97
2022-09-22T19:43:26.273Z,82.32
2022-09-22T19:46:12.017Z,82.76
2022-09-22T19:48:58.766Z,83.26
2022-09-22T19:51:45.579Z,84.46
2022-09-22T19:54:32.116Z,85.24
2022-09-22T19:57:18.005Z,85.83
2022-09-22T20:00:04.812Z,87.11
2022-09-22T20:03:00.885Z,88.49
2022-09-22T20:05:48.825Z,86.08
2022-09-22T20:08:36.221Z,85.31
2022-09-22T20:11:26.499Z,82.68
2022-09-22T20:14:23.778Z,83.09
2022-09-22T20:17:10.614Z,82.17
2022-09-22T20:19:57.189Z,83.67
2022-09-22T20:22:44.885Z,84.68
2022-09-22T20:25:32.247Z,87.04
2022-09-22T20:28:18.768Z,85.04
2022-09-22T20:31:09.715Z,84.64
2022-09-22T20:33:56.182Z,85.51
2022-09-22T20:36:43.352Z,83.79
2022-09-22T20:39:29.741Z,84.58
2022-09-22T20:42:16.129Z,85.51
2022-09-22T20:45:02.560Z,86.00
2022-09-22T20:47:50.006Z,87.44
2022-09-22T20:50:36.790Z,86.75
2022-09-22T20:53:23.055Z,86.96
2022-09-22T20:56:11.141Z,86.98
2022-09-22T20:58:57.107Z,87.66
2022-09-22T21:01:43.429Z,88.06
2022-09-22T21:04:30.139Z,87.87
2022-09-22T21:07:16.774Z,84.16
2022-09-22T21:10:21.757Z,81.82
2022-09-22T21:13:08.608Z,83.44
2022-09-22T21:16:04.861Z,86.27
2022-09-22T21:18:51.868Z,88.27
2022-09-22T21:21:37.958Z,88.34
2022-09-22T21:24:24.430Z,90.84
2022-09-22T21:27:10.870Z,89.96
2022-09-22T21:29:57.246Z,89.15
2022-09-22T21:32:43.526Z,88.19
2022-09-22T21:35:30.000Z,91.55
2022-09-22T21:38:16.963Z,90.21
2022-09-22T21:41:05.549Z,86.81
2022-09-22T21:43:51.746Z,85.20
2022-09-22T21:46:40.850Z,85.93
2022-09-22T21:49:27.065Z,83.74
2022-09-22T21:52:13.387Z,85.62
2022-09-22T21:54:59.268Z,85.61
2022-09-22T21:57:45.436Z,88.89
2022-09-22T22:00:50.746Z,90.11
2022-09-22T22:03:42.107Z,88.54
2022-09-22T22:06:34.821Z,93.17
2022-09-22T22:09:23.093Z,93.05
2022-09-22T22:12:09.330Z,89.15
2022-09-22T22:14:57.066Z,88.45
2022-09-22T22:17:43.273Z,88.06
2022-09-22T22:20:31.079Z,88.62
2022-09-22T22:23:17.065Z,85.40
2022-09-22T22:26:07.923Z,86.22
2022-09-22T22:28:53.990Z,87.34
2022-09-22T22:31:41.824Z,88.89
2022-09-22T22:34:27.796Z,100.00
2022-09-22T22:37:14.162Z,100.00
2022-09-22T22:40:01.339Z,94.87
2022-09-22T22:42:49.179Z,90.03
2022-09-22T22:45:35.184Z,88.32
2022-09-22T22:48:21.837Z,88.30
2022-09-22T22:51:11.552Z,87.85
2022-09-22T22:53:57.726Z,88.20
2022-09-22T22:56:47.791Z,90.52
2022-09-22T22:59:35.129Z,91.18
2022-09-22T23:02:22.040Z,92.07
2022-09-22T23:05:08.782Z,90.07
2022-09-22T23:07:55.189Z,90.29
2022-09-22T23:10:41.692Z,91.77
2022-09-22T23:13:29.833Z,92.91
2022-09-22T23:16:18.444Z,95.81
2022-09-22T23:19:07.749Z,90.46
2022-09-22T23:21:55.409Z,88.24
2022-09-22T23:24:41.393Z,93.47
2022-09-22T23:27:28.400Z,97.13
2022-09-22T23:30:16.038Z,96.47
2022-09-22T23:33:02.051Z,91.65
2022-09-22T23:35:56.215Z,90.57
2022-09-22T23:38:42.635Z,91.27
2022-09-22T23:41:28.356Z,90.34
2022-09-22T23:44:14.739Z,91.57
2022-09-22T23:47:01.004Z,89.50
2022-09-22T23:49:47.605Z,88.15
2022-09-22T23:52:33.752Z,88.51
2022-09-22T23:55:20.475Z,86.26
2022-09-22T23:58:06.871Z,88.46
